Terminal Aerodrome Forecast
Issued by NWS

Home | Current Version | Previous Version | Text Only | Print | Product List | Glossary On
Versions: 1 2 3 4 5 6 7 8 9 10 11 12 13
000
FTUS45 KGJT 172341
TAFCNY
TAF
KCNY 172341Z 1800/1824 27024G40KT P6SM SCT080 OVC100
     FM180200 29028G49KT P6SM SCT080 BKN200
     FM180500 29023G41KT P6SM SKC
     FM180700 27018G32KT P6SM SKC
     FM181100 26006KT P6SM SKC
     FM181400 00000KT P6SM SKC=

USA.gov is the U.S. government's official web portal to all federal, state and local government web resources and services.